createdAt,value
2023-10-09T00:00:55.486Z,0.00
2023-10-09T00:01:55.510Z,0.00
2023-10-09T00:02:55.543Z,0.00
2023-10-09T00:03:55.582Z,0.00
2023-10-09T00:04:55.440Z,0.00
2023-10-09T00:05:55.713Z,0.00
2023-10-09T00:06:56.548Z,0.00
2023-10-09T00:07:55.373Z,0.00
2023-10-09T00:08:55.422Z,0.00
2023-10-09T00:09:55.363Z,0.00
2023-10-09T00:10:56.188Z,0.00
2023-10-09T00:11:55.348Z,0.00
2023-10-09T00:12:55.353Z,0.00
2023-10-09T00:13:55.313Z,0.00
2023-10-09T00:14:55.356Z,0.00
2023-10-09T00:15:55.396Z,0.00
2023-10-09T00:16:55.339Z,0.00
2023-10-09T00:17:55.324Z,0.00
2023-10-09T00:18:55.285Z,0.00
2023-10-09T00:19:55.283Z,0.00
2023-10-09T00:20:55.253Z,0.00
2023-10-09T00:21:55.226Z,0.00
2023-10-09T00:22:55.234Z,0.00
2023-10-09T00:23:55.257Z,0.00
2023-10-09T00:24:55.205Z,0.00
2023-10-09T00:25:55.270Z,0.00
2023-10-09T00:26:55.185Z,0.00
2023-10-09T00:27:55.146Z,0.00
2023-10-09T00:28:55.163Z,0.00
2023-10-09T00:29:55.166Z,0.00
2023-10-09T00:30:55.246Z,0.00
2023-10-09T00:31:55.111Z,0.00
2023-10-09T00:32:55.175Z,0.00
2023-10-09T00:33:55.121Z,0.00
2023-10-09T00:34:55.554Z,0.00
2023-10-09T00:35:56.189Z,0.00
2023-10-09T00:36:55.836Z,0.00
2023-10-09T00:37:55.965Z,0.00
2023-10-09T00:38:55.044Z,0.00
2023-10-09T00:39:55.021Z,0.00
2023-10-09T00:40:55.055Z,0.00
2023-10-09T00:41:55.067Z,0.00
2023-10-09T00:42:54.981Z,0.00
2023-10-09T00:43:55.363Z,0.00
2023-10-09T00:44:56.352Z,0.00
2023-10-09T00:45:54.994Z,0.00
2023-10-09T00:46:54.960Z,0.00
2023-10-09T00:47:54.979Z,0.00
2023-10-09T00:48:54.995Z,0.00
2023-10-09T00:49:54.888Z,0.00
2023-10-09T00:50:54.931Z,0.00
2023-10-09T00:51:54.885Z,0.00
2023-10-09T00:52:54.898Z,0.00
2023-10-09T00:53:54.907Z,0.00
2023-10-09T00:54:54.872Z,0.00
2023-10-09T00:55:54.838Z,0.00
2023-10-09T00:56:54.841Z,0.00
2023-10-09T00:57:54.832Z,0.00
2023-10-09T00:58:54.800Z,0.00
2023-10-09T00:59:54.813Z,0.00
2023-10-09T01:00:55.644Z,0.00
2023-10-09T01:01:54.825Z,0.00
2023-10-09T01:02:54.858Z,0.00
2023-10-09T01:03:54.907Z,0.00
2023-10-09T01:04:54.741Z,0.00
2023-10-09T01:05:54.769Z,0.00
2023-10-09T01:06:54.713Z,0.00
2023-10-09T01:07:54.812Z,0.00
2023-10-09T01:08:54.702Z,0.00
2023-10-09T01:09:54.687Z,0.00
2023-10-09T01:10:54.677Z,0.00
2023-10-09T01:11:54.674Z,0.00
2023-10-09T01:12:54.703Z,0.00
2023-10-09T01:13:54.771Z,0.00
2023-10-09T01:14:54.642Z,0.00
2023-10-09T01:15:54.646Z,0.00
2023-10-09T01:16:54.593Z,0.00
2023-10-09T01:17:54.669Z,0.00
2023-10-09T01:18:54.661Z,0.00
2023-10-09T01:19:54.569Z,0.00
2023-10-09T01:20:54.579Z,0.00
2023-10-09T01:21:54.559Z,0.00
2023-10-09T01:22:54.555Z,0.00
2023-10-09T01:23:54.594Z,0.00
2023-10-09T01:24:54.526Z,0.00
2023-10-09T01:25:54.499Z,0.00
2023-10-09T01:26:54.504Z,0.00
2023-10-09T01:27:54.509Z,0.00
2023-10-09T01:28:54.507Z,0.00
2023-10-09T01:29:54.595Z,0.00
2023-10-09T01:30:54.456Z,0.00
2023-10-09T01:31:54.455Z,0.00
2023-10-09T01:32:54.507Z,0.00
2023-10-09T01:33:54.454Z,0.00
2023-10-09T01:34:54.436Z,0.00
2023-10-09T01:35:54.457Z,0.00
2023-10-09T01:36:54.379Z,0.00
2023-10-09T01:37:54.380Z,0.00
2023-10-09T01:38:54.432Z,0.00
2023-10-09T01:39:54.349Z,0.00
2023-10-09T01:40:54.347Z,0.00
2023-10-09T01:41:54.386Z,0.00
2023-10-09T01:42:54.342Z,0.00
2023-10-09T01:43:54.309Z,0.00
2023-10-09T01:44:54.335Z,0.00
2023-10-09T01:45:54.342Z,0.00
2023-10-09T01:46:54.277Z,0.00
2023-10-09T01:47:54.320Z,0.00
2023-10-09T01:48:54.286Z,0.00
2023-10-09T01:49:54.255Z,0.00
2023-10-09T01:50:54.290Z,0.00
2023-10-09T01:51:54.254Z,0.00
2023-10-09T01:52:54.239Z,0.00
2023-10-09T01:53:54.234Z,0.00
2023-10-09T01:54:54.246Z,0.00
2023-10-09T01:55:54.212Z,0.00
2023-10-09T01:56:54.178Z,0.00
2023-10-09T01:57:55.217Z,0.00
2023-10-09T01:58:54.136Z,0.00
2023-10-09T01:59:54.583Z,0.00
2023-10-09T02:00:54.124Z,0.00
2023-10-09T02:01:54.122Z,0.00
2023-10-09T02:02:54.234Z,0.00
2023-10-09T02:03:54.169Z,0.00
2023-10-09T02:04:54.141Z,0.00
2023-10-09T02:05:54.106Z,0.00
2023-10-09T02:06:54.143Z,0.00
2023-10-09T02:07:54.225Z,0.00
2023-10-09T02:08:54.044Z,0.00
2023-10-09T02:09:54.036Z,0.00
2023-10-09T02:10:54.011Z,0.00
2023-10-09T02:11:56.722Z,0.00
2023-10-09T02:12:53.996Z,0.00
2023-10-09T02:13:53.993Z,0.00
2023-10-09T02:14:54.016Z,0.00
2023-10-09T02:15:54.036Z,0.00
2023-10-09T02:16:53.967Z,0.00
2023-10-09T02:17:53.973Z,0.00
2023-10-09T02:18:54.333Z,0.00
2023-10-09T02:19:53.910Z,0.00
2023-10-09T02:20:53.923Z,0.00
2023-10-09T02:21:53.950Z,0.00
2023-10-09T02:22:53.873Z,0.00
2023-10-09T02:23:54.768Z,0.00
2023-10-09T02:24:53.845Z,0.00
2023-10-09T02:25:53.840Z,0.00
2023-10-09T02:26:53.839Z,0.00
2023-10-09T02:27:53.903Z,0.00
2023-10-09T02:28:53.815Z,0.00
2023-10-09T02:29:53.800Z,0.00
2023-10-09T02:30:53.817Z,0.00
2023-10-09T02:31:53.798Z,0.00
2023-10-09T02:32:53.861Z,0.00
2023-10-09T02:33:53.754Z,0.00
2023-10-09T02:34:53.906Z,0.00
2023-10-09T02:35:53.736Z,0.00
2023-10-09T02:36:53.718Z,0.00
2023-10-09T02:37:53.731Z,0.00
2023-10-09T02:38:53.716Z,0.00
2023-10-09T02:39:53.794Z,0.00
2023-10-09T02:40:53.679Z,0.00
2023-10-09T02:41:53.701Z,0.00
2023-10-09T02:42:53.662Z,0.00
2023-10-09T02:43:53.651Z,0.00
2023-10-09T02:44:53.661Z,0.00
2023-10-09T02:45:53.619Z,0.00
2023-10-09T02:46:53.667Z,0.00
2023-10-09T02:47:53.661Z,0.00
2023-10-09T02:48:53.598Z,0.00
2023-10-09T02:49:53.594Z,0.00
2023-10-09T02:50:53.582Z,0.00
2023-10-09T02:51:53.554Z,0.00
2023-10-09T02:52:53.558Z,0.00
2023-10-09T02:53:53.534Z,0.00
2023-10-09T02:54:53.539Z,0.00
2023-10-09T02:55:53.600Z,0.00
2023-10-09T02:56:53.505Z,0.00
2023-10-09T02:57:53.610Z,0.00
2023-10-09T02:58:53.498Z,0.00
2023-10-09T02:59:53.566Z,0.00
2023-10-09T03:00:53.460Z,0.00
2023-10-09T03:01:53.442Z,0.00
2023-10-09T03:02:53.515Z,0.00
2023-10-09T03:03:53.497Z,0.00
2023-10-09T03:04:53.495Z,0.00
2023-10-09T03:05:53.418Z,0.00
2023-10-09T03:06:53.426Z,0.00
2023-10-09T03:07:54.444Z,0.00
2023-10-09T03:08:54.618Z,0.00
2023-10-09T03:09:53.736Z,0.00
2023-10-09T03:10:53.884Z,0.00
2023-10-09T03:11:54.012Z,0.00
2023-10-09T03:12:53.702Z,0.00
2023-10-09T03:13:54.083Z,0.00
2023-10-09T03:14:53.384Z,0.00
2023-10-09T03:15:53.414Z,0.00
2023-10-09T03:16:53.933Z,0.00
2023-10-09T03:17:53.710Z,0.00
2023-10-09T03:18:53.339Z,0.00
2023-10-09T03:19:53.531Z,0.00
2023-10-09T03:20:53.320Z,0.00
2023-10-09T03:21:53.342Z,0.00
2023-10-09T03:22:53.363Z,0.00
2023-10-09T03:23:53.901Z,0.00
2023-10-09T03:24:54.252Z,0.00
2023-10-09T03:25:59.174Z,0.00
2023-10-09T03:26:55.517Z,0.00
2023-10-09T03:27:53.321Z,0.00
2023-10-09T03:28:54.308Z,0.00
2023-10-09T03:29:53.348Z,0.00
2023-10-09T03:30:54.758Z,0.00
2023-10-09T03:31:54.412Z,0.00
2023-10-09T03:32:53.469Z,0.00
2023-10-09T03:33:53.178Z,0.00
2023-10-09T03:34:53.142Z,0.00
2023-10-09T03:35:53.398Z,0.00
2023-10-09T03:36:53.508Z,0.00
2023-10-09T03:37:53.163Z,0.00
2023-10-09T03:38:53.929Z,0.00
2023-10-09T03:39:53.094Z,0.00
2023-10-09T03:40:53.112Z,0.00
2023-10-09T03:41:53.088Z,0.00
2023-10-09T03:42:53.077Z,0.00
2023-10-09T03:43:53.096Z,0.00
2023-10-09T03:44:53.092Z,0.00
2023-10-09T03:45:53.036Z,0.00
2023-10-09T03:46:53.036Z,0.00
2023-10-09T03:47:53.040Z,0.00
2023-10-09T03:48:52.978Z,0.00
2023-10-09T03:49:52.981Z,0.00
2023-10-09T03:50:52.981Z,0.00
2023-10-09T03:51:53.075Z,0.00
2023-10-09T03:52:56.269Z,0.00
2023-10-09T03:53:53.999Z,0.00
2023-10-09T03:54:52.945Z,0.00
2023-10-09T03:55:52.936Z,0.00
2023-10-09T03:56:52.904Z,0.00
2023-10-09T03:57:52.882Z,0.00
2023-10-09T03:58:52.932Z,0.00
2023-10-09T03:59:53.015Z,0.00
2023-10-09T04:00:53.001Z,0.00
2023-10-09T04:01:52.870Z,0.00
2023-10-09T04:02:54.072Z,0.00
2023-10-09T04:03:52.923Z,0.00
2023-10-09T04:04:53.519Z,0.00
2023-10-09T04:05:53.414Z,0.00
2023-10-09T04:06:52.844Z,0.00
2023-10-09T04:07:52.989Z,0.00
2023-10-09T04:08:52.750Z,0.00
2023-10-09T04:09:53.329Z,0.00
2023-10-09T04:10:56.819Z,0.00
2023-10-09T04:11:54.154Z,0.00
2023-10-09T04:12:54.688Z,0.00
2023-10-09T04:13:52.698Z,0.00
2023-10-09T04:14:52.711Z,0.00
2023-10-09T04:15:52.740Z,0.00
2023-10-09T04:16:52.679Z,0.00
2023-10-09T04:17:52.754Z,0.00
2023-10-09T04:18:53.778Z,0.00
2023-10-09T04:19:52.645Z,0.00
2023-10-09T04:20:52.674Z,0.00
2023-10-09T04:21:52.610Z,0.00
2023-10-09T04:22:52.853Z,0.00
2023-10-09T04:23:52.602Z,0.00
2023-10-09T04:24:52.609Z,0.00
2023-10-09T04:25:52.550Z,0.00
2023-10-09T04:26:52.701Z,0.00
2023-10-09T04:27:52.703Z,0.00
2023-10-09T04:28:52.780Z,0.00
2023-10-09T04:29:52.888Z,0.00
2023-10-09T04:30:52.566Z,0.00
2023-10-09T04:31:52.824Z,0.00
2023-10-09T04:32:52.556Z,0.00
2023-10-09T04:33:52.496Z,0.00
2023-10-09T04:34:52.617Z,0.00
2023-10-09T04:35:52.655Z,0.00
2023-10-09T04:36:52.871Z,0.00
2023-10-09T04:37:53.420Z,0.00
2023-10-09T04:38:52.453Z,0.00
2023-10-09T04:39:52.720Z,0.00
2023-10-09T04:40:53.640Z,0.00
2023-10-09T04:41:53.021Z,0.00
2023-10-09T04:42:53.215Z,0.00
2023-10-09T04:43:52.558Z,0.00
2023-10-09T04:44:52.974Z,0.00
2023-10-09T04:45:52.362Z,0.00
2023-10-09T04:46:52.587Z,0.00
2023-10-09T04:47:52.553Z,0.00
2023-10-09T04:48:52.331Z,0.00
2023-10-09T04:49:52.291Z,0.00
2023-10-09T04:50:52.443Z,0.00
2023-10-09T04:51:52.446Z,0.00
2023-10-09T04:52:52.621Z,0.00
2023-10-09T04:53:52.261Z,0.00
2023-10-09T04:54:52.561Z,0.00
2023-10-09T04:55:52.243Z,0.00
2023-10-09T04:56:52.386Z,0.00
2023-10-09T04:57:52.286Z,0.00
2023-10-09T04:58:52.193Z,0.00
2023-10-09T04:59:52.666Z,0.00
2023-10-09T05:00:52.659Z,0.00
2023-10-09T05:01:52.352Z,0.00
2023-10-09T05:02:52.611Z,0.00
2023-10-09T05:03:52.538Z,0.00
2023-10-09T05:04:52.429Z,0.00
2023-10-09T05:05:52.469Z,0.00
2023-10-09T05:06:52.480Z,0.00
2023-10-09T05:07:52.450Z,0.00
2023-10-09T05:08:52.245Z,0.00
2023-10-09T05:09:52.092Z,4.00
2023-10-09T05:10:52.090Z,4.00
2023-10-09T05:11:52.410Z,4.00
2023-10-09T05:12:52.087Z,4.00
2023-10-09T05:13:52.151Z,8.00
2023-10-09T05:14:53.016Z,4.00
2023-10-09T05:15:52.372Z,8.00
2023-10-09T05:16:52.080Z,8.00
2023-10-09T05:17:52.237Z,12.00
2023-10-09T05:18:52.040Z,16.00
2023-10-09T05:19:52.518Z,12.00
2023-10-09T05:20:52.176Z,16.00
2023-10-09T05:21:52.644Z,20.00
2023-10-09T05:22:52.360Z,20.00
2023-10-09T05:23:52.216Z,28.00
2023-10-09T05:24:51.999Z,32.00
2023-10-09T05:25:52.027Z,36.00
2023-10-09T05:26:52.480Z,40.00
2023-10-09T05:27:52.406Z,48.00
2023-10-09T05:28:52.113Z,52.00
2023-10-09T05:29:52.397Z,56.00
2023-10-09T05:30:51.926Z,64.00
2023-10-09T05:31:51.945Z,68.00
2023-10-09T05:32:52.092Z,76.00
2023-10-09T05:33:53.844Z,76.00
2023-10-09T05:34:52.002Z,84.00
2023-10-09T05:35:51.807Z,92.00
2023-10-09T05:36:51.820Z,100.00
2023-10-09T05:37:52.013Z,108.00
2023-10-09T05:38:52.532Z,120.00
2023-10-09T05:39:52.307Z,128.00
2023-10-09T05:40:51.773Z,132.00
2023-10-09T05:41:51.736Z,136.00
2023-10-09T05:42:51.767Z,144.00
2023-10-09T05:43:51.798Z,156.00
2023-10-09T05:44:51.932Z,172.00
2023-10-09T05:45:52.262Z,188.00
2023-10-09T05:46:51.693Z,188.00
2023-10-09T05:47:51.750Z,192.00
2023-10-09T05:48:52.306Z,196.00
2023-10-09T05:49:51.993Z,204.00
2023-10-09T05:50:51.721Z,212.00
2023-10-09T05:51:51.684Z,220.00
2023-10-09T05:52:51.645Z,220.00
2023-10-09T05:53:51.623Z,224.00
2023-10-09T05:54:51.790Z,228.00
2023-10-09T05:55:52.887Z,240.00
2023-10-09T05:56:51.550Z,252.00
2023-10-09T05:57:51.816Z,264.00
2023-10-09T05:58:51.939Z,276.00
2023-10-09T05:59:51.811Z,288.00
2023-10-09T06:00:52.389Z,312.00
2023-10-09T06:01:51.665Z,340.00
2023-10-09T06:03:01.206Z,372.00
2023-10-09T06:03:53.610Z,384.00
2023-10-09T06:04:51.834Z,376.00
2023-10-09T06:05:51.572Z,372.00
2023-10-09T06:06:51.605Z,372.00
2023-10-09T06:07:51.535Z,376.00
2023-10-09T06:08:51.511Z,376.00
2023-10-09T06:09:52.492Z,388.00
2023-10-09T06:10:51.549Z,400.00
2023-10-09T06:11:51.661Z,440.00
2023-10-09T06:12:54.734Z,496.00
2023-10-09T06:13:52.679Z,568.00
2023-10-09T06:14:51.393Z,632.00
2023-10-09T06:15:51.416Z,672.00
2023-10-09T06:16:51.451Z,692.00
2023-10-09T06:17:51.513Z,668.00
2023-10-09T06:18:51.405Z,640.00
2023-10-09T06:19:51.420Z,644.00
2023-10-09T06:20:51.369Z,668.00
2023-10-09T06:21:51.374Z,700.00
2023-10-09T06:22:51.417Z,748.00
2023-10-09T06:23:51.316Z,804.00
2023-10-09T06:24:51.384Z,888.00
2023-10-09T06:25:51.299Z,980.00
2023-10-09T06:26:52.329Z,1064.00
2023-10-09T06:27:51.575Z,1104.00
2023-10-09T06:28:51.389Z,1144.00
2023-10-09T06:29:51.264Z,1216.00
2023-10-09T06:30:51.555Z,1300.00
2023-10-09T06:31:52.487Z,1296.00
2023-10-09T06:32:51.947Z,1228.00
2023-10-09T06:33:51.665Z,1120.00
2023-10-09T06:34:52.456Z,1036.00
2023-10-09T06:35:51.629Z,1024.00
2023-10-09T06:36:51.132Z,1028.00
2023-10-09T06:37:51.168Z,1056.00
2023-10-09T06:38:52.072Z,1072.00
2023-10-09T06:39:53.044Z,1100.00
2023-10-09T06:40:51.712Z,1132.00
2023-10-09T06:41:51.118Z,1124.00
2023-10-09T06:42:51.439Z,1152.00
2023-10-09T06:43:51.187Z,1220.00
2023-10-09T06:44:51.815Z,1332.00
2023-10-09T06:45:56.965Z,1452.00
2023-10-09T06:46:51.309Z,1516.00
2023-10-09T06:47:52.298Z,1624.00
2023-10-09T06:48:51.043Z,1728.00
2023-10-09T06:49:51.977Z,1860.00
2023-10-09T06:50:51.935Z,1936.00
2023-10-09T06:51:52.172Z,1836.00
2023-10-09T06:52:52.507Z,1708.00
2023-10-09T06:53:52.188Z,1620.00
2023-10-09T06:54:52.055Z,1588.00
2023-10-09T06:55:52.997Z,1612.00
2023-10-09T06:56:52.590Z,1684.00
2023-10-09T06:57:52.312Z,1788.00
2023-10-09T06:58:50.908Z,1900.00
2023-10-09T06:59:53.395Z,1980.00
2023-10-09T07:00:50.982Z,1972.00
2023-10-09T07:01:51.031Z,1936.00
2023-10-09T07:02:50.998Z,1988.00
2023-10-09T07:03:51.830Z,2128.00
2023-10-09T07:04:52.088Z,2312.00
2023-10-09T07:05:51.236Z,2456.00
2023-10-09T07:06:51.839Z,2480.00
2023-10-09T07:07:54.700Z,2372.00
2023-10-09T07:08:50.866Z,2256.00
2023-10-09T07:09:51.353Z,2256.00
2023-10-09T07:10:53.177Z,2312.00
2023-10-09T07:11:51.886Z,2396.00
2023-10-09T07:12:51.859Z,2512.00
2023-10-09T07:13:51.797Z,2528.00
2023-10-09T07:14:52.023Z,2428.00
2023-10-09T07:15:53.832Z,2268.00
2023-10-09T07:16:50.804Z,2060.00
2023-10-09T07:17:50.766Z,1936.00
2023-10-09T07:18:51.164Z,1932.00
2023-10-09T07:19:50.736Z,1904.00
2023-10-09T07:20:50.731Z,1888.00
2023-10-09T07:21:50.713Z,2052.00
2023-10-09T07:22:50.718Z,2268.00
2023-10-09T07:23:50.729Z,2312.00
2023-10-09T07:24:50.791Z,2452.00
2023-10-09T07:25:50.642Z,3004.00
2023-10-09T07:26:50.687Z,3792.00
2023-10-09T07:27:51.362Z,4264.00
2023-10-09T07:28:50.655Z,4144.00
2023-10-09T07:29:50.674Z,4056.00
2023-10-09T07:30:50.632Z,4344.00
2023-10-09T07:31:50.662Z,4888.00
2023-10-09T07:32:50.634Z,5208.00
2023-10-09T07:33:50.610Z,5176.00
2023-10-09T07:34:50.653Z,5380.00
2023-10-09T07:35:50.632Z,6000.00
2023-10-09T07:36:50.628Z,6580.00
2023-10-09T07:37:50.590Z,6904.00
2023-10-09T07:38:50.516Z,7056.00
2023-10-09T07:39:50.571Z,7220.00
2023-10-09T07:40:51.031Z,7252.00
2023-10-09T07:41:50.517Z,6716.00
2023-10-09T07:42:51.185Z,5816.00
2023-10-09T07:43:50.491Z,5248.00
2023-10-09T07:44:50.487Z,4984.00
2023-10-09T07:45:50.561Z,4588.00
2023-10-09T07:46:50.462Z,4360.00
2023-10-09T07:47:50.529Z,4172.00
2023-10-09T07:48:50.445Z,4100.00
2023-10-09T07:49:50.461Z,3980.00
2023-10-09T07:50:50.579Z,3712.00
2023-10-09T07:51:50.593Z,3376.00
2023-10-09T07:52:50.392Z,3324.00
2023-10-09T07:53:51.048Z,3480.00
2023-10-09T07:54:50.391Z,3732.00
2023-10-09T07:55:50.551Z,3912.00
2023-10-09T07:56:50.370Z,4016.00
2023-10-09T07:57:50.462Z,4068.00
2023-10-09T07:58:50.864Z,4080.00
2023-10-09T07:59:50.326Z,4032.00
2023-10-09T08:00:50.384Z,4032.00
2023-10-09T08:01:50.301Z,3972.00
2023-10-09T08:02:50.347Z,3912.00
2023-10-09T08:03:50.685Z,3980.00
2023-10-09T08:04:51.340Z,4156.00
2023-10-09T08:05:50.300Z,4384.00
2023-10-09T08:07:04.613Z,4436.00
2023-10-09T08:08:05.330Z,4512.00
2023-10-09T08:08:51.285Z,4724.00
2023-10-09T08:09:50.310Z,4616.00
2023-10-09T08:10:50.213Z,4252.00
2023-10-09T08:11:50.201Z,4020.00
2023-10-09T08:12:50.382Z,4060.00
2023-10-09T08:13:50.444Z,4016.00
2023-10-09T08:14:50.203Z,3872.00
2023-10-09T08:15:50.351Z,3924.00
2023-10-09T08:16:50.406Z,4188.00
2023-10-09T08:17:50.228Z,4256.00
2023-10-09T08:18:51.166Z,4356.00
2023-10-09T08:19:50.117Z,4488.00
2023-10-09T08:20:50.329Z,4608.00
2023-10-09T08:21:50.095Z,4864.00
2023-10-09T08:22:50.075Z,5048.00
2023-10-09T08:23:50.055Z,4936.00
2023-10-09T08:24:50.122Z,4736.00
2023-10-09T08:25:50.026Z,4680.00
2023-10-09T08:26:50.051Z,4720.00
2023-10-09T08:27:50.049Z,4840.00
2023-10-09T08:28:50.359Z,5040.00
2023-10-09T08:29:50.166Z,5276.00
2023-10-09T08:30:50.531Z,5384.00
2023-10-09T08:31:49.982Z,5312.00
2023-10-09T08:35:51.180Z,3968.00
2023-10-09T08:36:50.018Z,3740.00
2023-10-09T08:37:50.433Z,3792.00
2023-10-09T08:38:49.889Z,4056.00
2023-10-09T08:39:49.942Z,4192.00
2023-10-09T08:40:49.979Z,4072.00
2023-10-09T08:41:49.878Z,3900.00
2023-10-09T08:42:49.876Z,3752.00
2023-10-09T08:43:49.869Z,3556.00
2023-10-09T08:44:50.864Z,3416.00
2023-10-09T08:45:49.860Z,3428.00
2023-10-09T08:46:49.861Z,3600.00
2023-10-09T08:47:50.174Z,3712.00
2023-10-09T08:48:49.909Z,3712.00
2023-10-09T08:49:49.824Z,3908.00
2023-10-09T08:50:50.148Z,4008.00
2023-10-09T08:51:50.394Z,4552.00
2023-10-09T08:52:49.766Z,5416.00
2023-10-09T08:53:49.727Z,6676.00
2023-10-09T08:54:49.780Z,7528.00
2023-10-09T08:55:49.807Z,8004.00
2023-10-09T08:56:49.720Z,8328.00
2023-10-09T08:57:49.991Z,8444.00
2023-10-09T08:58:49.689Z,8340.00
2023-10-09T08:59:49.810Z,8088.00
2023-10-09T09:00:49.809Z,7396.00
2023-10-09T09:01:49.714Z,7092.00
2023-10-09T09:02:49.819Z,6856.00
2023-10-09T09:03:49.711Z,6584.00
2023-10-09T09:04:49.696Z,6216.00
2023-10-09T09:05:49.644Z,6088.00
2023-10-09T09:06:49.763Z,6104.00
2023-10-09T09:07:50.084Z,6104.00
2023-10-09T09:08:49.572Z,6068.00
2023-10-09T09:09:49.664Z,5956.00
2023-10-09T09:10:49.904Z,5788.00
2023-10-09T09:11:49.673Z,5596.00
2023-10-09T09:12:49.684Z,5528.00
2023-10-09T09:13:49.709Z,5444.00
2023-10-09T09:14:49.528Z,5244.00
2023-10-09T09:15:49.503Z,5140.00
2023-10-09T09:16:49.693Z,5076.00
2023-10-09T09:17:49.587Z,4944.00
2023-10-09T09:18:49.775Z,4648.00
2023-10-09T09:19:49.646Z,4516.00
2023-10-09T09:20:49.448Z,4500.00
2023-10-09T09:21:49.442Z,4536.00
2023-10-09T09:22:49.469Z,4620.00
2023-10-09T09:23:49.765Z,4632.00
2023-10-09T09:24:49.400Z,4652.00
2023-10-09T09:25:49.719Z,4740.00
2023-10-09T09:26:49.468Z,4824.00
2023-10-09T09:27:50.215Z,4816.00
2023-10-09T09:28:49.419Z,4848.00
2023-10-09T09:29:49.501Z,4864.00
2023-10-09T09:30:49.519Z,4816.00
2023-10-09T09:31:49.407Z,4880.00
2023-10-09T09:32:49.386Z,5112.00
2023-10-09T09:33:49.454Z,5356.00
2023-10-09T09:34:49.501Z,5532.00
2023-10-09T09:35:50.067Z,5636.00
2023-10-09T09:36:49.401Z,5704.00
2023-10-09T09:37:49.623Z,5856.00
2023-10-09T09:38:49.810Z,6040.00
2023-10-09T09:39:55.893Z,6076.00
2023-10-09T09:40:51.296Z,6096.00
2023-10-09T09:41:49.256Z,6212.00
2023-10-09T09:42:49.220Z,6388.00
2023-10-09T09:43:49.281Z,6608.00
2023-10-09T09:44:49.181Z,6740.00
2023-10-09T09:45:49.209Z,6628.00
2023-10-09T09:46:49.264Z,6552.00
2023-10-09T09:47:49.286Z,6536.00
2023-10-09T09:48:49.129Z,6608.00
2023-10-09T09:49:49.190Z,6624.00
2023-10-09T09:50:49.172Z,6528.00
2023-10-09T09:51:49.263Z,6440.00
2023-10-09T09:52:49.135Z,6348.00
2023-10-09T09:53:49.108Z,6196.00
2023-10-09T09:54:49.166Z,6080.00
2023-10-09T09:55:49.231Z,6008.00
2023-10-09T09:56:49.063Z,5988.00
2023-10-09T09:57:49.090Z,6016.00
2023-10-09T09:58:49.035Z,6152.00
2023-10-09T09:59:49.170Z,6344.00
2023-10-09T10:00:49.144Z,6516.00
2023-10-09T10:01:49.175Z,6664.00
2023-10-09T10:02:49.157Z,6608.00
2023-10-09T10:03:48.974Z,6580.00
2023-10-09T10:04:49.062Z,6704.00
2023-10-09T10:05:48.956Z,6836.00
2023-10-09T10:06:48.987Z,6600.00
2023-10-09T10:07:48.999Z,6212.00
2023-10-09T10:08:48.952Z,6016.00
2023-10-09T10:09:48.950Z,6172.00
2023-10-09T10:10:49.222Z,6592.00
2023-10-09T10:11:48.867Z,6764.00
2023-10-09T10:12:48.919Z,6692.00
2023-10-09T10:13:48.907Z,6832.00
2023-10-09T10:14:48.845Z,6916.00
2023-10-09T10:15:48.851Z,6892.00
2023-10-09T10:16:48.905Z,6696.00
2023-10-09T10:17:48.915Z,6444.00
2023-10-09T10:18:49.633Z,6404.00
2023-10-09T10:19:48.796Z,6640.00
2023-10-09T10:20:49.590Z,6908.00
2023-10-09T10:21:49.618Z,7036.00
2023-10-09T10:22:48.788Z,7076.00
2023-10-09T10:23:49.056Z,7000.00
2023-10-09T10:24:48.706Z,7100.00
2023-10-09T10:25:48.726Z,7044.00
2023-10-09T10:26:48.723Z,6904.00
2023-10-09T10:27:48.657Z,6660.00
2023-10-09T10:28:49.127Z,6364.00
2023-10-09T10:29:48.635Z,6092.00
2023-10-09T10:30:49.132Z,5860.00
2023-10-09T10:31:49.121Z,5468.00
2023-10-09T10:32:48.811Z,5244.00
2023-10-09T10:33:48.843Z,5264.00
2023-10-09T10:34:50.163Z,5308.00
2023-10-09T10:35:48.813Z,5416.00
2023-10-09T10:36:48.641Z,5684.00
2023-10-09T10:37:48.944Z,6012.00
2023-10-09T10:38:48.593Z,6268.00
2023-10-09T10:39:48.670Z,6416.00
2023-10-09T10:40:48.823Z,6528.00
2023-10-09T10:41:48.637Z,6636.00
2023-10-09T10:42:48.880Z,6840.00
2023-10-09T10:43:48.968Z,6992.00
2023-10-09T10:44:48.824Z,7076.00
2023-10-09T10:45:48.681Z,7096.00
2023-10-09T10:46:48.521Z,7308.00
2023-10-09T10:47:48.469Z,7632.00
2023-10-09T10:48:48.530Z,7928.00
2023-10-09T10:49:48.780Z,8212.00
2023-10-09T10:50:48.478Z,8504.00
2023-10-09T10:51:48.663Z,8732.00
2023-10-09T10:52:48.621Z,8972.00
2023-10-09T10:53:48.989Z,9088.00
2023-10-09T10:54:49.172Z,8868.00
2023-10-09T10:55:50.740Z,8504.00
2023-10-09T10:56:48.544Z,8432.00
2023-10-09T10:57:49.851Z,8732.00
2023-10-09T10:58:48.782Z,8700.00
2023-10-09T10:59:48.667Z,8284.00
2023-10-09T11:00:48.498Z,7544.00
2023-10-09T11:01:48.857Z,6904.00
2023-10-09T11:02:48.650Z,6668.00
2023-10-09T11:03:48.585Z,6472.00
2023-10-09T11:04:48.625Z,6300.00
2023-10-09T11:05:48.290Z,6252.00
2023-10-09T11:06:48.431Z,6420.00
2023-10-09T11:07:48.454Z,6772.00
2023-10-09T11:08:48.486Z,7300.00
2023-10-09T11:09:53.059Z,7624.00
2023-10-09T11:10:50.232Z,7556.00
2023-10-09T11:11:48.259Z,7640.00
2023-10-09T11:12:48.364Z,7876.00
2023-10-09T11:13:48.810Z,8244.00
2023-10-09T11:14:48.495Z,8632.00
2023-10-09T11:15:48.253Z,9072.00
2023-10-09T11:16:48.249Z,9340.00
2023-10-09T11:17:48.224Z,9688.00
2023-10-09T11:18:48.086Z,10340.00
2023-10-09T11:19:48.193Z,10876.00
2023-10-09T11:20:48.418Z,11212.00
2023-10-09T11:21:48.105Z,11548.00
2023-10-09T11:22:48.300Z,11852.00
2023-10-09T11:23:49.156Z,12264.00
2023-10-09T11:24:48.675Z,12396.00
2023-10-09T11:25:48.424Z,12508.00
2023-10-09T11:26:48.036Z,12556.00
2023-10-09T11:27:48.053Z,12664.00
2023-10-09T11:28:48.196Z,12716.00
2023-10-09T11:29:47.977Z,12784.00
2023-10-09T11:30:48.082Z,12796.00
2023-10-09T11:31:48.668Z,12924.00
2023-10-09T11:32:48.160Z,12932.00
2023-10-09T11:33:47.943Z,13128.00
2023-10-09T11:34:48.072Z,13272.00
2023-10-09T11:35:47.901Z,13536.00
2023-10-09T11:36:47.898Z,13992.00
2023-10-09T11:37:47.927Z,14232.00
2023-10-09T11:38:47.826Z,14524.00
2023-10-09T11:39:47.986Z,14432.00
2023-10-09T11:40:48.081Z,14148.00
2023-10-09T11:41:48.911Z,14220.00
2023-10-09T11:42:47.946Z,13988.00
2023-10-09T11:43:48.504Z,13396.00
2023-10-09T11:44:48.048Z,12856.00
2023-10-09T11:45:49.058Z,12532.00
2023-10-09T11:46:47.806Z,12572.00
2023-10-09T11:47:48.020Z,12392.00
2023-10-09T11:48:47.895Z,11976.00
2023-10-09T11:49:47.807Z,11720.00
2023-10-09T11:50:48.029Z,11436.00
2023-10-09T11:51:47.903Z,11220.00
2023-10-09T11:52:47.865Z,11496.00
2023-10-09T11:53:47.799Z,11920.00
2023-10-09T11:54:47.766Z,12096.00
2023-10-09T11:55:47.723Z,12852.00
2023-10-09T11:56:47.648Z,13400.00
2023-10-09T11:57:47.958Z,12404.00
2023-10-09T11:58:47.698Z,13772.00
2023-10-09T11:59:47.690Z,13012.00
2023-10-09T12:00:48.840Z,13932.00
2023-10-09T12:01:47.672Z,14248.00
2023-10-09T12:02:47.746Z,15840.00
2023-10-09T12:03:47.643Z,15904.00
2023-10-09T12:04:47.618Z,16128.00
2023-10-09T12:05:47.575Z,15296.00
2023-10-09T12:06:47.536Z,14380.00
2023-10-09T12:07:47.614Z,13424.00
2023-10-09T12:08:47.514Z,11348.00
2023-10-09T12:09:48.529Z,9560.00
2023-10-09T12:10:47.544Z,9240.00
2023-10-09T12:12:01.258Z,8812.00
2023-10-09T12:12:49.505Z,8560.00
2023-10-09T12:13:47.601Z,8432.00
2023-10-09T12:14:47.481Z,8040.00
2023-10-09T12:15:47.522Z,7668.00
2023-10-09T12:16:47.644Z,7732.00
2023-10-09T12:17:47.499Z,8172.00
2023-10-09T12:18:47.423Z,8748.00
2023-10-09T12:19:47.460Z,9356.00
2023-10-09T12:20:47.409Z,9680.00
2023-10-09T12:21:47.405Z,9856.00
2023-10-09T12:22:47.400Z,9736.00
2023-10-09T12:23:47.410Z,8980.00
2023-10-09T12:24:47.337Z,8552.00
2023-10-09T12:25:47.428Z,8360.00
2023-10-09T12:26:47.346Z,8384.00
2023-10-09T12:27:48.016Z,8540.00
2023-10-09T12:28:48.360Z,8892.00
2023-10-09T12:29:50.400Z,9008.00
2023-10-09T12:30:48.285Z,10116.00
2023-10-09T12:31:47.363Z,10792.00
2023-10-09T12:32:47.413Z,11356.00
2023-10-09T12:33:47.285Z,11272.00
2023-10-09T12:34:47.308Z,11756.00
2023-10-09T12:35:47.220Z,12288.00
2023-10-09T12:36:47.224Z,12796.00
2023-10-09T12:37:47.237Z,13432.00
2023-10-09T12:38:47.641Z,13768.00